createdAt,value
2017-06-12T00:00:13.511Z,18.90
2017-06-12T00:02:41.091Z,18.90
2017-06-12T00:05:08.651Z,19.00
2017-06-12T00:07:36.314Z,18.90
2017-06-12T00:10:03.850Z,18.90
2017-06-12T00:12:31.437Z,18.80
2017-06-12T00:14:58.975Z,18.80
2017-06-12T00:17:26.557Z,18.80
2017-06-12T00:19:54.126Z,18.80
2017-06-12T00:22:21.662Z,18.80
2017-06-12T00:24:49.224Z,18.70
2017-06-12T00:27:17.190Z,18.70
2017-06-12T00:29:44.786Z,18.60
2017-06-12T00:32:12.319Z,18.60
2017-06-12T00:34:39.879Z,18.60
2017-06-12T00:37:07.411Z,18.60
2017-06-12T00:39:35.846Z,18.40
2017-06-12T00:42:03.402Z,18.40
2017-06-12T00:44:31.014Z,18.30
2017-06-12T00:46:59.314Z,18.30
2017-06-12T00:49:26.894Z,18.30
2017-06-12T00:51:54.426Z,18.30
2017-06-12T00:54:22.023Z,18.20
2017-06-12T00:56:49.622Z,18.20
2017-06-12T00:59:17.930Z,18.10
2017-06-12T01:01:45.495Z,18.10
2017-06-12T01:04:13.034Z,18.00
2017-06-12T01:06:41.358Z,18.00
2017-06-12T01:09:08.897Z,18.00
2017-06-12T01:11:36.493Z,18.00
2017-06-12T01:14:04.049Z,17.90
2017-06-12T01:16:31.598Z,17.90
2017-06-12T01:18:59.137Z,18.00
2017-06-12T01:21:26.741Z,17.90
2017-06-12T01:23:54.389Z,18.00
2017-06-12T01:26:21.926Z,17.90
2017-06-12T01:28:49.515Z,17.80
2017-06-12T01:31:17.074Z,17.80
2017-06-12T01:33:44.737Z,17.90
2017-06-12T01:36:12.302Z,17.80
2017-06-12T01:38:39.868Z,17.80
2017-06-12T01:41:07.398Z,17.90
2017-06-12T01:43:34.929Z,17.80
2017-06-12T01:46:03.361Z,17.80
2017-06-12T01:48:30.924Z,17.80
2017-06-12T01:50:58.483Z,17.90
2017-06-12T01:53:26.043Z,17.80
2017-06-12T01:55:53.617Z,17.80
2017-06-12T01:58:21.145Z,17.80
2017-06-12T02:00:48.718Z,17.70
2017-06-12T02:03:16.281Z,17.80
2017-06-12T02:05:43.845Z,17.70
2017-06-12T02:08:11.503Z,17.60
2017-06-12T02:10:39.033Z,17.60
2017-06-12T02:13:06.622Z,17.60
2017-06-12T02:15:34.187Z,17.60
2017-06-12T02:18:01.843Z,17.70
2017-06-12T02:20:29.387Z,17.70
2017-06-12T02:22:56.970Z,17.70
2017-06-12T02:25:24.504Z,17.70
2017-06-12T02:27:52.098Z,17.80
2017-06-12T02:30:19.658Z,17.80
2017-06-12T02:32:47.228Z,17.70
2017-06-12T02:35:14.778Z,17.70
2017-06-12T02:37:42.322Z,17.70
2017-06-12T02:40:09.928Z,17.60
2017-06-12T02:42:37.471Z,17.60
2017-06-12T02:45:05.125Z,17.50
2017-06-12T02:47:32.701Z,17.40
2017-06-12T02:50:00.358Z,17.30
2017-06-12T02:52:27.930Z,17.40
2017-06-12T02:54:55.482Z,17.30
2017-06-12T02:57:23.134Z,17.30
2017-06-12T02:59:50.731Z,17.30
2017-06-12T03:02:18.371Z,17.30
2017-06-12T03:04:46.739Z,17.30
2017-06-12T03:07:14.402Z,17.30
2017-06-12T03:09:41.967Z,17.30
2017-06-12T03:12:22.082Z,17.20
2017-06-12T03:14:49.667Z,17.20
2017-06-12T03:17:17.343Z,17.20
2017-06-12T03:19:44.947Z,17.20
2017-06-12T03:22:13.246Z,17.00
2017-06-12T03:24:40.843Z,17.00
2017-06-12T03:27:08.413Z,17.00
2017-06-12T03:29:35.983Z,17.00
2017-06-12T03:32:03.633Z,17.00
2017-06-12T03:34:31.199Z,17.00
2017-06-12T03:36:58.738Z,17.00
2017-06-12T03:39:26.409Z,17.00
2017-06-12T03:41:53.942Z,16.90
2017-06-12T03:44:21.542Z,16.80
2017-06-12T03:46:49.126Z,16.70
2017-06-12T03:49:16.684Z,16.70
2017-06-12T03:51:44.263Z,16.70
2017-06-12T03:54:12.620Z,16.70
2017-06-12T03:56:40.165Z,16.60
2017-06-12T03:59:07.695Z,16.60
2017-06-12T04:01:35.235Z,16.70
2017-06-12T04:04:03.534Z,16.70
2017-06-12T04:06:31.127Z,16.70
2017-06-12T04:08:58.660Z,16.70
2017-06-12T04:11:26.234Z,16.70
2017-06-12T04:13:53.802Z,16.70
2017-06-12T04:16:21.335Z,16.60
2017-06-12T04:18:48.866Z,16.60
2017-06-12T04:21:17.167Z,16.60
2017-06-12T04:23:44.754Z,16.60
2017-06-12T04:26:12.286Z,16.60
2017-06-12T04:28:39.891Z,16.60
2017-06-12T04:31:07.486Z,16.60
2017-06-12T04:33:35.831Z,16.60
2017-06-12T04:36:03.392Z,16.60
2017-06-12T04:38:30.950Z,16.60
2017-06-12T04:40:58.491Z,16.60
2017-06-12T04:43:26.066Z,16.60
2017-06-12T04:45:53.628Z,16.60
2017-06-12T04:48:21.186Z,16.60
2017-06-12T04:50:48.851Z,16.70
2017-06-12T04:53:16.407Z,16.70
2017-06-12T04:55:43.934Z,16.60
2017-06-12T04:58:11.487Z,16.60
2017-06-12T05:00:39.823Z,16.60
2017-06-12T05:03:07.381Z,16.60
2017-06-12T05:05:34.944Z,16.60
2017-06-12T05:08:02.481Z,16.70
2017-06-12T05:10:30.061Z,16.70
2017-06-12T05:12:57.682Z,16.80
2017-06-12T05:15:25.222Z,16.80
2017-06-12T05:17:53.558Z,19.60
2017-06-12T05:20:21.114Z,19.50
2017-06-12T05:22:48.647Z,20.90
2017-06-12T05:25:16.230Z,21.90
2017-06-12T05:27:43.766Z,22.40
2017-06-12T05:30:11.361Z,22.80
2017-06-12T05:32:38.900Z,22.90
2017-06-12T05:35:06.482Z,23.10
2017-06-12T05:37:34.017Z,23.20
2017-06-12T05:40:01.598Z,23.50
2017-06-12T05:42:29.153Z,23.60
2017-06-12T05:44:56.695Z,23.30
2017-06-12T05:47:24.240Z,24.20
2017-06-12T05:49:52.554Z,23.10
2017-06-12T05:52:20.093Z,23.10
2017-06-12T05:54:47.628Z,23.90
2017-06-12T05:57:15.943Z,23.90
2017-06-12T05:59:43.480Z,23.80
2017-06-12T06:02:11.049Z,24.90
2017-06-12T06:04:38.639Z,24.80
2017-06-12T06:07:06.307Z,25.00
2017-06-12T06:09:33.873Z,23.90
2017-06-12T06:12:01.438Z,23.60
2017-06-12T06:14:28.986Z,24.30
2017-06-12T06:16:57.366Z,24.40
2017-06-12T06:19:24.931Z,25.60
2017-06-12T06:21:52.458Z,25.50
2017-06-12T06:24:20.061Z,25.10
2017-06-12T06:26:47.622Z,25.30
2017-06-12T06:29:15.278Z,26.00
2017-06-12T06:31:42.851Z,26.50
2017-06-12T06:34:10.409Z,26.20
2017-06-12T06:36:37.943Z,25.90
2017-06-12T06:39:05.521Z,26.70
2017-06-12T06:41:33.086Z,26.30
2017-06-12T06:44:00.633Z,25.30
2017-06-12T06:46:28.197Z,26.20
2017-06-12T06:48:55.734Z,27.10
2017-06-12T06:51:23.329Z,27.20
2017-06-12T06:53:50.878Z,27.40
2017-06-12T06:56:18.538Z,27.20
2017-06-12T06:58:46.079Z,28.30
2017-06-12T07:01:13.657Z,26.80
2017-06-12T07:03:41.229Z,24.60
2017-06-12T07:06:08.786Z,22.50
2017-06-12T07:08:36.347Z,22.50
2017-06-12T07:11:03.908Z,23.40
2017-06-12T07:13:31.450Z,24.10
2017-06-12T07:15:58.982Z,25.40
2017-06-12T07:18:27.411Z,25.90
2017-06-12T07:20:54.978Z,25.90
2017-06-12T07:23:22.642Z,23.70
2017-06-12T07:25:50.202Z,23.20
2017-06-12T07:28:17.783Z,21.60
2017-06-12T07:30:45.322Z,20.80
2017-06-12T07:33:12.886Z,21.60
2017-06-12T07:35:40.422Z,22.20
2017-06-12T07:38:08.002Z,23.20
2017-06-12T07:40:35.555Z,24.20
2017-06-12T07:43:03.098Z,23.80
2017-06-12T07:45:30.654Z,24.90
2017-06-12T07:47:58.255Z,23.70
2017-06-12T07:50:39.798Z,22.40
2017-06-12T07:53:07.361Z,22.40
2017-06-12T07:55:34.950Z,23.60
2017-06-12T07:58:02.511Z,23.90
2017-06-12T08:00:30.044Z,23.50
2017-06-12T08:02:57.647Z,23.00
2017-06-12T08:05:25.194Z,22.60
2017-06-12T08:07:52.747Z,24.10
2017-06-12T08:10:20.322Z,24.30
2017-06-12T08:12:47.983Z,23.20
2017-06-12T08:15:15.547Z,23.30
2017-06-12T08:17:43.107Z,22.70
2017-06-12T08:20:10.642Z,22.00
2017-06-12T08:22:38.178Z,22.80
2017-06-12T08:25:06.618Z,21.50
2017-06-12T08:27:34.161Z,21.50
2017-06-12T08:30:01.827Z,20.90
2017-06-12T08:32:29.398Z,21.30
2017-06-12T08:34:57.062Z,22.10
2017-06-12T08:37:24.590Z,22.70
2017-06-12T08:39:52.179Z,21.30
2017-06-12T08:42:19.717Z,22.40
2017-06-12T08:44:47.262Z,23.10
2017-06-12T08:47:14.802Z,22.80
2017-06-12T08:49:43.135Z,24.00
2017-06-12T08:52:10.785Z,23.90
2017-06-12T08:54:38.366Z,23.90
2017-06-12T08:57:06.018Z,23.20
2017-06-12T08:59:33.562Z,21.60
2017-06-12T09:02:01.234Z,21.00
2017-06-12T09:04:28.810Z,21.10
2017-06-12T09:06:56.467Z,22.40
2017-06-12T09:09:24.008Z,22.40
2017-06-12T09:11:51.595Z,21.80
2017-06-12T09:14:19.139Z,21.70
2017-06-12T09:16:46.715Z,21.40
2017-06-12T09:19:14.270Z,20.80
2017-06-12T09:21:41.819Z,20.90
2017-06-12T09:24:09.376Z,21.70
2017-06-12T09:26:36.971Z,21.70
2017-06-12T09:29:04.523Z,20.90
2017-06-12T09:31:32.054Z,21.20
2017-06-12T09:33:59.641Z,21.50
2017-06-12T09:36:27.204Z,21.20
2017-06-12T09:38:54.778Z,21.20
2017-06-12T09:41:22.322Z,22.20
2017-06-12T09:43:49.890Z,22.80
2017-06-12T09:46:17.426Z,22.40
2017-06-12T09:48:45.011Z,22.30
2017-06-12T09:51:12.548Z,21.70
2017-06-12T09:53:40.090Z,22.90
2017-06-12T09:56:07.622Z,23.40
2017-06-12T09:58:35.151Z,22.10
2017-06-12T10:01:02.810Z,23.70
2017-06-12T10:03:30.355Z,24.50
2017-06-12T10:06:14.822Z,23.70
2017-06-12T10:08:42.371Z,22.50
2017-06-12T10:11:09.946Z,21.30
2017-06-12T10:13:37.483Z,21.00
2017-06-12T10:16:05.022Z,21.60
2017-06-12T10:18:33.342Z,21.30
2017-06-12T10:21:00.875Z,21.30
2017-06-12T10:23:28.419Z,21.00
2017-06-12T10:25:56.739Z,20.20
2017-06-12T10:28:24.406Z,20.20
2017-06-12T10:30:51.974Z,19.90
2017-06-12T10:33:19.528Z,20.00
2017-06-12T10:35:47.102Z,20.00
2017-06-12T10:38:14.650Z,20.30
2017-06-12T10:40:42.216Z,21.00
2017-06-12T10:43:09.753Z,22.30
2017-06-12T10:45:37.283Z,21.90
2017-06-12T10:48:05.593Z,20.90
2017-06-12T10:50:33.356Z,20.80
2017-06-12T10:53:00.891Z,20.20
2017-06-12T10:55:29.218Z,19.20
2017-06-12T10:57:56.761Z,19.20
2017-06-12T11:00:24.351Z,19.10
2017-06-12T11:02:51.898Z,19.10
2017-06-12T11:05:19.461Z,19.40
2017-06-12T11:07:47.086Z,19.80
2017-06-12T11:10:14.682Z,20.40
2017-06-12T11:12:42.346Z,20.70
2017-06-12T11:15:10.698Z,20.80
2017-06-12T11:17:38.238Z,21.00
2017-06-12T11:20:06.574Z,20.80
2017-06-12T11:22:39.049Z,20.80
2017-06-12T11:25:06.609Z,20.60
2017-06-12T11:27:34.150Z,20.20
2017-06-12T11:30:01.694Z,20.10
2017-06-12T11:32:29.287Z,20.30
2017-06-12T11:34:56.950Z,20.10
2017-06-12T11:37:24.498Z,20.00
2017-06-12T11:39:52.130Z,19.90
2017-06-12T11:42:19.718Z,20.20
2017-06-12T11:44:47.289Z,20.20
2017-06-12T11:47:14.870Z,19.90
2017-06-12T11:49:42.527Z,20.20
2017-06-12T11:52:10.178Z,20.20
2017-06-12T11:54:37.750Z,20.10
2017-06-12T11:57:05.398Z,20.30
2017-06-12T11:59:32.940Z,21.00
2017-06-12T12:02:00.534Z,21.60
2017-06-12T12:04:28.090Z,21.20
2017-06-12T12:06:55.622Z,21.30
2017-06-12T12:09:23.188Z,20.90
2017-06-12T12:11:50.742Z,20.80
2017-06-12T12:14:18.326Z,20.40
2017-06-12T12:16:45.891Z,20.40
2017-06-12T12:19:13.431Z,20.10
2017-06-12T12:21:41.017Z,19.90
2017-06-12T12:24:08.574Z,19.60
2017-06-12T12:26:36.240Z,19.40
2017-06-12T12:29:03.796Z,19.40
2017-06-12T12:31:31.472Z,19.00
2017-06-12T12:33:59.010Z,18.90
2017-06-12T12:36:26.573Z,18.70
2017-06-12T12:38:54.142Z,19.00
2017-06-12T12:41:21.806Z,18.90
2017-06-12T12:43:49.367Z,19.00
2017-06-12T12:46:16.926Z,18.90
2017-06-12T12:48:44.462Z,18.80
2017-06-12T12:51:12.038Z,18.90
2017-06-12T12:53:39.592Z,18.90
2017-06-12T12:56:07.134Z,18.90
2017-06-12T12:58:34.730Z,19.70
2017-06-12T13:01:02.290Z,20.10
2017-06-12T13:03:29.975Z,20.30
2017-06-12T13:05:57.619Z,20.60
2017-06-12T13:08:25.282Z,21.10
2017-06-12T13:10:52.822Z,21.00
2017-06-12T13:13:20.361Z,20.10
2017-06-12T13:15:47.898Z,19.80
2017-06-12T13:18:15.439Z,19.80
2017-06-12T13:20:43.086Z,19.50
2017-06-12T13:23:10.641Z,19.00
2017-06-12T13:25:38.282Z,18.70
2017-06-12T13:28:05.816Z,18.60
2017-06-12T13:30:34.146Z,18.20
2017-06-12T13:33:01.706Z,18.10
2017-06-12T13:35:29.267Z,18.00
2017-06-12T13:37:56.807Z,17.90
2017-06-12T13:40:24.389Z,17.90
2017-06-12T13:42:52.046Z,17.90
2017-06-12T13:45:19.606Z,18.40
2017-06-12T13:47:47.271Z,19.20
2017-06-12T13:50:14.929Z,19.60
2017-06-12T13:52:42.529Z,19.80
2017-06-12T13:55:10.160Z,19.80
2017-06-12T13:57:37.695Z,19.60
2017-06-12T14:00:05.294Z,19.40
2017-06-12T14:02:32.843Z,19.20
2017-06-12T14:05:00.451Z,19.40
2017-06-12T14:07:28.770Z,19.70
2017-06-12T14:09:56.343Z,19.70
2017-06-12T14:12:23.911Z,19.90
2017-06-12T14:14:51.478Z,19.90
2017-06-12T14:17:19.042Z,19.80
2017-06-12T14:19:46.598Z,19.90
2017-06-12T14:22:14.241Z,20.00
2017-06-12T14:24:41.803Z,20.10
2017-06-12T14:27:09.363Z,19.90
2017-06-12T14:29:36.890Z,19.70
2017-06-12T14:32:05.230Z,19.50
2017-06-12T14:34:32.907Z,19.50
2017-06-12T14:37:00.539Z,19.50
2017-06-12T14:39:28.121Z,19.60
2017-06-12T14:42:16.408Z,19.70
2017-06-12T14:44:43.955Z,20.10
2017-06-12T14:47:12.291Z,20.20
2017-06-12T14:49:39.847Z,20.10
2017-06-12T14:52:07.374Z,20.00
2017-06-12T14:54:34.992Z,20.10
2017-06-12T14:57:02.634Z,20.20
2017-06-12T14:59:30.196Z,20.30
2017-06-12T15:01:57.740Z,20.10
2017-06-12T15:04:25.271Z,20.10
2017-06-12T15:06:52.883Z,19.90
2017-06-12T15:09:20.438Z,20.00
2017-06-12T15:11:48.018Z,20.20
2017-06-12T15:14:15.661Z,20.30
2017-06-12T15:16:43.226Z,20.20
2017-06-12T15:19:10.780Z,20.10
2017-06-12T15:21:38.355Z,20.00
2017-06-12T15:24:05.885Z,19.70
2017-06-12T15:26:33.474Z,19.80
2017-06-12T15:29:01.032Z,19.80
2017-06-12T15:31:28.575Z,19.80
2017-06-12T15:34:01.886Z,19.70
2017-06-12T15:36:29.428Z,20.20
2017-06-12T15:38:56.974Z,20.30
2017-06-12T15:41:24.657Z,20.20
2017-06-12T15:43:52.327Z,20.00
2017-06-12T15:46:19.878Z,20.00
2017-06-12T15:48:47.456Z,20.10
2017-06-12T15:51:15.014Z,19.90
2017-06-12T15:53:42.575Z,19.70
2017-06-12T15:56:10.116Z,19.40
2017-06-12T15:58:37.690Z,19.50
2017-06-12T16:01:05.250Z,19.60
2017-06-12T16:03:32.808Z,19.70
2017-06-12T16:06:00.362Z,19.60
2017-06-12T16:08:27.947Z,19.50
2017-06-12T16:10:55.476Z,19.50
2017-06-12T16:13:23.010Z,19.40
2017-06-12T16:15:51.312Z,19.10
2017-06-12T16:18:18.842Z,19.10
2017-06-12T16:20:47.170Z,19.20
2017-06-12T16:23:14.719Z,19.20
2017-06-12T16:25:42.291Z,19.50
2017-06-12T16:28:09.866Z,20.00
2017-06-12T16:30:37.402Z,20.10
2017-06-12T16:33:04.986Z,20.10
2017-06-12T16:35:32.514Z,19.80
2017-06-12T16:38:00.092Z,19.70
2017-06-12T16:40:27.663Z,19.50
2017-06-12T16:42:55.197Z,19.50
2017-06-12T16:45:22.890Z,19.50
2017-06-12T16:47:50.426Z,19.20
2017-06-12T16:50:18.006Z,19.10
2017-06-12T16:52:45.574Z,19.00
2017-06-12T16:55:13.126Z,19.00
2017-06-12T16:57:40.683Z,19.00
2017-06-12T17:00:08.246Z,18.70
2017-06-12T17:02:35.780Z,18.70
2017-06-12T17:05:03.327Z,18.70
2017-06-12T17:07:31.643Z,18.70
2017-06-12T17:09:59.203Z,18.70
2017-06-12T17:12:26.866Z,18.80
2017-06-12T17:14:54.436Z,18.90
2017-06-12T17:17:22.090Z,19.00
2017-06-12T17:19:49.658Z,18.80
2017-06-12T17:22:17.187Z,18.80
2017-06-12T17:24:44.767Z,18.50
2017-06-12T17:27:12.314Z,18.50
2017-06-12T17:29:39.904Z,18.30
2017-06-12T17:32:07.450Z,18.30
2017-06-12T17:34:35.134Z,18.30
2017-06-12T17:37:02.672Z,18.10
2017-06-12T17:39:30.227Z,18.10
2017-06-12T17:41:57.810Z,18.10
2017-06-12T17:44:25.370Z,18.10
2017-06-12T17:46:52.982Z,18.10
2017-06-12T17:49:21.306Z,18.10
2017-06-12T17:51:48.949Z,18.00
2017-06-12T17:54:16.539Z,18.10
2017-06-12T17:56:44.075Z,18.10
2017-06-12T17:59:11.654Z,18.10
2017-06-12T18:01:39.199Z,18.00
2017-06-12T18:04:06.796Z,18.10
2017-06-12T18:06:34.330Z,18.10
2017-06-12T18:09:01.902Z,18.10
2017-06-12T18:11:29.435Z,18.00
2017-06-12T18:13:57.138Z,17.90
2017-06-12T18:16:24.785Z,17.90
2017-06-12T18:18:52.403Z,17.90
2017-06-12T18:21:19.943Z,17.80
2017-06-12T18:23:47.571Z,17.70
2017-06-12T18:26:15.138Z,17.70
2017-06-12T18:28:42.691Z,17.80
2017-06-12T18:31:10.232Z,17.80
2017-06-12T18:33:37.813Z,17.70
2017-06-12T18:36:05.351Z,17.80
2017-06-12T18:38:32.887Z,17.70
2017-06-12T18:41:01.238Z,17.70
2017-06-12T18:43:28.795Z,17.70
2017-06-12T18:45:56.342Z,17.60
2017-06-12T18:48:24.085Z,17.50
2017-06-12T18:50:51.616Z,17.50
2017-06-12T18:53:19.182Z,17.40
2017-06-12T18:55:46.782Z,17.40
2017-06-12T18:58:14.358Z,17.30
2017-06-12T19:00:41.890Z,17.30
2017-06-12T19:03:09.462Z,17.20
2017-06-12T19:05:37.023Z,17.30
2017-06-12T19:08:04.691Z,17.20
2017-06-12T19:10:32.229Z,17.20
2017-06-12T19:12:59.810Z,17.20
2017-06-12T19:15:27.348Z,17.20
2017-06-12T19:17:54.931Z,17.10
2017-06-12T19:20:22.467Z,17.00
2017-06-12T19:22:50.048Z,17.00
2017-06-12T19:25:17.608Z,16.90
2017-06-12T19:27:45.284Z,16.90
2017-06-12T19:30:12.823Z,16.80
2017-06-12T19:32:40.385Z,16.80
2017-06-12T19:35:07.927Z,16.80
2017-06-12T19:37:35.475Z,16.80
2017-06-12T19:40:03.798Z,16.70
2017-06-12T19:42:31.344Z,16.70
2017-06-12T19:44:58.910Z,16.70
2017-06-12T19:47:26.479Z,16.70
2017-06-12T19:49:54.051Z,16.70
2017-06-12T19:52:21.586Z,16.70
2017-06-12T19:54:49.166Z,16.70
2017-06-12T19:57:16.703Z,16.60
2017-06-12T19:59:44.257Z,16.60
2017-06-12T20:02:11.845Z,16.60
2017-06-12T20:04:39.514Z,16.60
2017-06-12T20:07:07.171Z,16.60
2017-06-12T20:09:34.753Z,16.50
2017-06-12T20:12:02.302Z,16.50
2017-06-12T20:14:30.062Z,16.50
2017-06-12T20:16:57.617Z,16.50
2017-06-12T20:19:25.282Z,16.50
2017-06-12T20:21:52.823Z,16.60
2017-06-12T20:24:20.411Z,16.50
2017-06-12T20:26:48.078Z,16.50
2017-06-12T20:29:15.635Z,16.40
2017-06-12T20:31:43.190Z,16.40
2017-06-12T20:34:10.853Z,16.40
2017-06-12T20:36:38.441Z,16.40
2017-06-12T20:39:06.007Z,16.40
2017-06-12T20:41:33.558Z,16.30
2017-06-12T20:44:01.200Z,16.30
2017-06-12T20:46:28.759Z,16.40
2017-06-12T20:48:56.334Z,16.30
2017-06-12T20:51:23.870Z,16.30
2017-06-12T20:53:51.542Z,16.30
2017-06-12T20:56:19.106Z,16.30
2017-06-12T20:58:46.681Z,16.30
2017-06-12T21:01:14.230Z,16.30
2017-06-12T21:03:41.794Z,16.30
2017-06-12T21:06:09.323Z,16.20
2017-06-12T21:08:36.883Z,16.30
2017-06-12T21:11:04.439Z,16.20
2017-06-12T21:13:31.971Z,16.20
2017-06-12T21:16:00.311Z,16.20
2017-06-12T21:18:27.870Z,16.20
2017-06-12T21:20:55.530Z,16.10
2017-06-12T21:23:23.075Z,16.10
2017-06-12T21:25:50.646Z,16.20
2017-06-12T21:28:18.214Z,16.10
2017-06-12T21:30:45.785Z,16.10
2017-06-12T21:33:13.348Z,16.10
2017-06-12T21:35:40.920Z,16.00
2017-06-12T21:38:08.451Z,16.10
2017-06-12T21:40:36.109Z,16.10
2017-06-12T21:43:03.684Z,16.10
2017-06-12T21:45:31.246Z,16.00
2017-06-12T21:47:58.845Z,16.00
2017-06-12T21:50:26.467Z,16.00
2017-06-12T21:52:54.029Z,16.00
2017-06-12T21:55:21.690Z,16.00
2017-06-12T21:57:49.249Z,16.00
2017-06-12T22:00:16.812Z,16.00
2017-06-12T22:02:44.366Z,16.00
2017-06-12T22:05:11.968Z,16.00
2017-06-12T22:07:39.535Z,16.00
2017-06-12T22:10:07.871Z,16.00
2017-06-12T22:12:35.407Z,16.00
2017-06-12T22:15:02.974Z,16.00
2017-06-12T22:17:30.558Z,15.90
2017-06-12T22:19:58.223Z,15.90
2017-06-12T22:22:25.831Z,15.90
2017-06-12T22:24:54.163Z,15.80
2017-06-12T22:27:21.769Z,15.80
2017-06-12T22:29:49.323Z,15.90
2017-06-12T22:32:17.643Z,15.80
2017-06-12T22:34:45.235Z,15.80
2017-06-12T22:37:12.788Z,15.80
2017-06-12T22:39:40.347Z,15.80
2017-06-12T22:42:07.885Z,15.80
2017-06-12T22:44:35.462Z,15.80
2017-06-12T22:47:03.027Z,15.90
2017-06-12T22:49:30.578Z,15.90
2017-06-12T22:51:58.155Z,15.80
2017-06-12T22:54:25.698Z,15.80
2017-06-12T22:56:53.271Z,15.80
2017-06-12T22:59:20.834Z,15.80
2017-06-12T23:01:48.383Z,15.80
2017-06-12T23:04:15.957Z,15.80
2017-06-12T23:06:43.503Z,15.70
2017-06-12T23:09:11.067Z,15.80
2017-06-12T23:11:38.606Z,15.70
2017-06-12T23:14:06.170Z,15.80
2017-06-12T23:16:33.728Z,15.80
2017-06-12T23:19:01.280Z,15.70
2017-06-12T23:21:28.813Z,15.70
2017-06-12T23:24:02.731Z,15.70
2017-06-12T23:26:31.082Z,15.70
2017-06-12T23:28:58.763Z,15.70
2017-06-12T23:31:26.299Z,15.60
2017-06-12T23:33:53.828Z,15.70
2017-06-12T23:36:21.393Z,15.70
2017-06-12T23:38:48.933Z,15.60
2017-06-12T23:43:50.381Z,15.70
2017-06-12T23:46:18.694Z,15.70
2017-06-12T23:48:46.228Z,15.70
2017-06-12T23:51:14.591Z,15.60
2017-06-12T23:53:42.215Z,15.60
2017-06-12T23:56:09.750Z,15.60
2017-06-12T23:58:37.333Z,15.60
